TAM3210 SBGR-SBUL
Flight info
| Callsign | TAM3210 |
|---|---|
| Flight time | 0h 51m |
| Altitude | 30000 |
| Route | ORONU1A ISMOB UZ26 KEXIT DCT |
| Aircraft | A320/M-SDE3FGHIRWY/LB1 |
Departure
| Time | 2026-05-07 11:59 |
|---|---|
| Airport | São Paulo/Guarulhos–Governor André Franco Montoro International Airport (SBGR) |
Arrival
| Time | 2026-05-07 12:51 |
|---|---|
| Airport | Ten. Cel. Aviador César Bombonato Airport (SBUL) |
| Time | Latitude | Longitude | Altitude | Speed | Heading |
|---|---|---|---|---|---|
| 2026-05-07 11:47 | -23.42809 | -46.48246 | 2471 ft | 0 kts | 264° |
| 2026-05-07 11:52 | -23.42808 | -46.48234 | 2471 ft | 4 kts | 263° |
| 2026-05-07 11:52 | -23.42804 | -46.48205 | 2468 ft | 4 kts | 257° |
| 2026-05-07 11:53 | -23.42796 | -46.48177 | 2468 ft | 4 kts | 241° |
| 2026-05-07 11:53 | -23.42780 | -46.48158 | 2469 ft | 4 kts | 188° |
| 2026-05-07 11:53 | -23.42774 | -46.48157 | 2468 ft | 0 kts | 174° |
| 2026-05-07 11:55 | -23.42810 | -46.48153 | 2471 ft | 10 kts | 173° |
| 2026-05-07 11:56 | -23.42903 | -46.48144 | 2470 ft | 15 kts | 175° |
| 2026-05-07 11:56 | -23.43006 | -46.48134 | 2470 ft | 15 kts | 175° |
| 2026-05-07 11:56 | -23.43107 | -46.48134 | 2468 ft | 14 kts | 207° |
| 2026-05-07 11:56 | -23.43141 | -46.48221 | 2472 ft | 12 kts | 255° |
| 2026-05-07 11:57 | -23.43164 | -46.48311 | 2469 ft | 13 kts | 253° |
| 2026-05-07 11:57 | -23.43205 | -46.48387 | 2469 ft | 11 kts | 200° |
| 2026-05-07 11:57 | -23.43271 | -46.48373 | 2469 ft | 10 kts | 163° |
| 2026-05-07 11:57 | -23.43341 | -46.48352 | 2472 ft | 10 kts | 165° |
| 2026-05-07 11:58 | -23.43415 | -46.48300 | 2469 ft | 15 kts | 109° |
| 2026-05-07 11:58 | -23.43398 | -46.48221 | 2475 ft | 0 kts | 77° |
| 2026-05-07 11:58 | -23.43385 | -46.48167 | 2470 ft | 32 kts | 75° |
| 2026-05-07 11:59 | -23.43251 | -46.47679 | 2471 ft | 100 kts | 73° |
| 2026-05-07 11:59 | -23.43001 | -46.46751 | 2472 ft | 152 kts | 73° |
| 2026-05-07 11:59 | -23.42669 | -46.45528 | 2771 ft | 173 kts | 71° |
| 2026-05-07 11:59 | -23.42085 | -46.44416 | 3557 ft | 169 kts | 45° |
| 2026-05-07 12:00 | -23.41232 | -46.43477 | 3917 ft | 185 kts | 40° |
| 2026-05-07 12:00 | -23.40216 | -46.42479 | 4103 ft | 209 kts | 38° |
| 2026-05-07 12:00 | -23.39048 | -46.41369 | 4423 ft | 233 kts | 40° |
| 2026-05-07 12:00 | -23.37830 | -46.40169 | 5114 ft | 239 kts | 40° |
| 2026-05-07 12:01 | -23.36589 | -46.38912 | 5682 ft | 252 kts | 42° |
| 2026-05-07 12:01 | -23.35294 | -46.37527 | 6233 ft | 266 kts | 44° |
| 2026-05-07 12:01 | -23.33987 | -46.36084 | 6998 ft | 269 kts | 45° |
| 2026-05-07 12:01 | -23.32670 | -46.34612 | 7748 ft | 273 kts | 45° |
| 2026-05-07 12:02 | -23.31337 | -46.33119 | 8505 ft | 277 kts | 45° |
| 2026-05-07 12:02 | -23.29985 | -46.31610 | 9267 ft | 280 kts | 45° |
| 2026-05-07 12:02 | -23.28616 | -46.30085 | 10019 ft | 284 kts | 45° |
| 2026-05-07 12:02 | -23.27218 | -46.28528 | 10511 ft | 296 kts | 45° |
| 2026-05-07 12:03 | -23.25723 | -46.26862 | 10669 ft | 319 kts | 45° |
| 2026-05-07 12:03 | -23.24135 | -46.25096 | 11080 ft | 331 kts | 45° |
| 2026-05-07 12:03 | -23.22508 | -46.23291 | 11667 ft | 337 kts | 46° |
| 2026-05-07 12:03 | -23.20857 | -46.21466 | 12293 ft | 341 kts | 46° |
| 2026-05-07 12:04 | -23.19184 | -46.19619 | 12899 ft | 345 kts | 46° |
| 2026-05-07 12:04 | -23.17492 | -46.17751 | 13487 ft | 349 kts | 46° |
| 2026-05-07 12:04 | -23.15782 | -46.15858 | 14067 ft | 352 kts | 46° |
| 2026-05-07 12:04 | -23.14069 | -46.13989 | 14567 ft | 356 kts | 43° |
| 2026-05-07 12:05 | -23.11973 | -46.12552 | 15050 ft | 362 kts | 21° |
| 2026-05-07 12:05 | -23.09487 | -46.12075 | 15558 ft | 368 kts | 359° |
| 2026-05-07 12:05 | -23.06986 | -46.12682 | 16060 ft | 374 kts | 336° |
| 2026-05-07 12:05 | -23.04843 | -46.14298 | 16576 ft | 379 kts | 317° |
| 2026-05-07 12:06 | -23.02935 | -46.16286 | 17108 ft | 382 kts | 316° |
| 2026-05-07 12:06 | -23.01028 | -46.18305 | 17645 ft | 385 kts | 316° |
| 2026-05-07 12:06 | -22.99109 | -46.20347 | 18171 ft | 388 kts | 316° |
| 2026-05-07 12:06 | -22.97179 | -46.22403 | 18657 ft | 390 kts | 316° |
| 2026-05-07 12:07 | -22.95228 | -46.24473 | 19100 ft | 394 kts | 316° |
| 2026-05-07 12:07 | -22.93261 | -46.26555 | 19538 ft | 396 kts | 315° |
| 2026-05-07 12:07 | -22.91296 | -46.28666 | 20007 ft | 398 kts | 311° |
| 2026-05-07 12:07 | -22.89609 | -46.31040 | 20475 ft | 398 kts | 300° |
| 2026-05-07 12:08 | -22.88314 | -46.33695 | 20947 ft | 398 kts | 294° |
| 2026-05-07 12:08 | -22.87113 | -46.36406 | 21441 ft | 399 kts | 294° |
| 2026-05-07 12:08 | -22.85904 | -46.39124 | 21904 ft | 401 kts | 294° |
| 2026-05-07 12:08 | -22.84687 | -46.41847 | 22353 ft | 403 kts | 294° |
| 2026-05-07 12:09 | -22.83462 | -46.44582 | 22818 ft | 404 kts | 294° |
| 2026-05-07 12:09 | -22.82236 | -46.47327 | 23283 ft | 406 kts | 294° |
| 2026-05-07 12:09 | -22.81005 | -46.50084 | 23720 ft | 407 kts | 294° |
| 2026-05-07 12:09 | -22.79767 | -46.52856 | 24065 ft | 409 kts | 293° |
| 2026-05-07 12:10 | -22.78523 | -46.55641 | 24421 ft | 412 kts | 293° |
| 2026-05-07 12:10 | -22.77272 | -46.58437 | 24761 ft | 413 kts | 293° |
| 2026-05-07 12:10 | -22.76016 | -46.61245 | 25118 ft | 415 kts | 293° |
| 2026-05-07 12:10 | -22.74756 | -46.64065 | 25461 ft | 417 kts | 293° |
| 2026-05-07 12:11 | -22.73491 | -46.66897 | 25801 ft | 419 kts | 293° |
| 2026-05-07 12:11 | -22.72216 | -46.69744 | 26141 ft | 421 kts | 292° |
| 2026-05-07 12:11 | -22.70938 | -46.72599 | 26462 ft | 423 kts | 292° |
| 2026-05-07 12:11 | -22.69651 | -46.75470 | 26787 ft | 425 kts | 292° |
| 2026-05-07 12:12 | -22.68356 | -46.78356 | 27102 ft | 427 kts | 292° |
| 2026-05-07 12:12 | -22.67055 | -46.81252 | 27409 ft | 429 kts | 292° |
| 2026-05-07 12:12 | -22.65744 | -46.84168 | 27712 ft | 432 kts | 292° |
| 2026-05-07 12:12 | -22.64417 | -46.87089 | 28022 ft | 435 kts | 294° |
| 2026-05-07 12:13 | -22.62729 | -46.89839 | 28326 ft | 443 kts | 306° |
| 2026-05-07 12:13 | -22.60518 | -46.92197 | 28626 ft | 452 kts | 318° |
| 2026-05-07 12:13 | -22.57853 | -46.94053 | 28915 ft | 460 kts | 330° |
| 2026-05-07 12:13 | -22.54843 | -46.95299 | 29197 ft | 468 kts | 340° |
| 2026-05-07 12:14 | -22.51714 | -46.96302 | 29470 ft | 470 kts | 340° |
| 2026-05-07 12:14 | -22.48566 | -46.97312 | 29736 ft | 473 kts | 340° |
| 2026-05-07 12:14 | -22.45404 | -46.98330 | 30008 ft | 475 kts | 340° |
| 2026-05-07 12:14 | -22.42240 | -46.99351 | 30129 ft | 472 kts | 340° |
| 2026-05-07 12:15 | -22.39141 | -47.00348 | 30135 ft | 458 kts | 340° |
| 2026-05-07 12:15 | -22.33104 | -47.02291 | 30139 ft | 450 kts | 339° |
| 2026-05-07 12:16 | -22.27110 | -47.04226 | 30132 ft | 450 kts | 340° |
| 2026-05-07 12:16 | -22.21107 | -47.06163 | 30133 ft | 451 kts | 339° |
| 2026-05-07 12:17 | -22.15098 | -47.08100 | 30140 ft | 451 kts | 340° |
| 2026-05-07 12:17 | -22.09092 | -47.10030 | 30138 ft | 450 kts | 340° |
| 2026-05-07 12:18 | -22.03081 | -47.11950 | 30129 ft | 450 kts | 340° |
| 2026-05-07 12:18 | -21.97112 | -47.13863 | 30139 ft | 451 kts | 340° |
| 2026-05-07 12:19 | -21.91104 | -47.15793 | 30136 ft | 451 kts | 340° |
| 2026-05-07 12:19 | -21.85094 | -47.17722 | 30136 ft | 451 kts | 340° |
| 2026-05-07 12:20 | -21.79061 | -47.19597 | 30110 ft | 453 kts | 345° |
| 2026-05-07 12:20 | -21.73812 | -47.20376 | 30107 ft | 455 kts | 350° |
| 2026-05-07 12:21 | -21.67519 | -47.21201 | 30111 ft | 455 kts | 350° |
| 2026-05-07 12:21 | -21.61229 | -47.22025 | 30125 ft | 455 kts | 350° |
| 2026-05-07 12:22 | -21.54942 | -47.22852 | 30117 ft | 454 kts | 350° |
| 2026-05-07 12:22 | -21.48665 | -47.23673 | 30114 ft | 455 kts | 350° |
| 2026-05-07 12:23 | -21.42387 | -47.24494 | 30114 ft | 455 kts | 350° |
| 2026-05-07 12:23 | -21.36103 | -47.25319 | 30116 ft | 455 kts | 350° |
| 2026-05-07 12:24 | -21.29836 | -47.26274 | 30107 ft | 455 kts | 348° |
| 2026-05-07 12:24 | -21.23592 | -47.27370 | 30111 ft | 455 kts | 347° |
| 2026-05-07 12:25 | -21.17391 | -47.28456 | 30120 ft | 455 kts | 348° |
| 2026-05-07 12:25 | -21.11135 | -47.29502 | 30115 ft | 455 kts | 348° |
| 2026-05-07 12:26 | -21.04871 | -47.30534 | 30118 ft | 456 kts | 348° |
| 2026-05-07 12:26 | -20.98598 | -47.31572 | 30117 ft | 456 kts | 348° |
| 2026-05-07 12:27 | -20.92330 | -47.32616 | 30119 ft | 456 kts | 348° |
| 2026-05-07 12:27 | -20.86061 | -47.33663 | 30121 ft | 456 kts | 348° |
| 2026-05-07 12:28 | -20.79784 | -47.34705 | 30123 ft | 457 kts | 348° |
| 2026-05-07 12:28 | -20.73503 | -47.35744 | 30126 ft | 457 kts | 348° |
| 2026-05-07 12:29 | -20.67226 | -47.36785 | 30124 ft | 457 kts | 348° |
| 2026-05-07 12:29 | -20.60947 | -47.37848 | 30123 ft | 456 kts | 345° |
| 2026-05-07 12:30 | -20.55097 | -47.40206 | 30114 ft | 447 kts | 326° |
| 2026-05-07 12:30 | -20.49687 | -47.43475 | 30118 ft | 447 kts | 327° |
| 2026-05-07 12:31 | -20.44270 | -47.46727 | 30114 ft | 447 kts | 327° |
| 2026-05-07 12:31 | -20.38842 | -47.49974 | 30113 ft | 447 kts | 327° |
| 2026-05-07 12:32 | -20.33421 | -47.53220 | 30118 ft | 447 kts | 327° |
| 2026-05-07 12:32 | -20.30710 | -47.54844 | 30016 ft | 445 kts | 327° |
| 2026-05-07 12:32 | -20.28036 | -47.56441 | 29738 ft | 435 kts | 327° |
| 2026-05-07 12:32 | -20.25421 | -47.57999 | 29459 ft | 427 kts | 327° |
| 2026-05-07 12:33 | -20.20301 | -47.61057 | 28650 ft | 418 kts | 327° |
| 2026-05-07 12:33 | -20.17778 | -47.62563 | 28193 ft | 414 kts | 327° |
| 2026-05-07 12:33 | -20.15307 | -47.64038 | 27725 ft | 411 kts | 327° |
| 2026-05-07 12:34 | -20.12789 | -47.65541 | 27275 ft | 408 kts | 327° |
| 2026-05-07 12:34 | -20.10352 | -47.66996 | 26822 ft | 406 kts | 327° |
| 2026-05-07 12:34 | -20.07902 | -47.68462 | 26358 ft | 403 kts | 327° |
| 2026-05-07 12:34 | -20.05460 | -47.69924 | 25893 ft | 401 kts | 327° |
| 2026-05-07 12:35 | -20.03030 | -47.71376 | 25402 ft | 400 kts | 328° |
| 2026-05-07 12:35 | -20.00604 | -47.72826 | 24929 ft | 399 kts | 328° |
| 2026-05-07 12:35 | -19.98184 | -47.74272 | 24433 ft | 399 kts | 328° |
| 2026-05-07 12:35 | -19.95762 | -47.75717 | 23942 ft | 399 kts | 328° |
| 2026-05-07 12:36 | -19.93337 | -47.77162 | 23381 ft | 400 kts | 328° |
| 2026-05-07 12:36 | -19.90918 | -47.78603 | 22868 ft | 398 kts | 328° |
| 2026-05-07 12:36 | -19.88508 | -47.80036 | 22375 ft | 396 kts | 329° |
| 2026-05-07 12:36 | -19.86110 | -47.81459 | 21938 ft | 394 kts | 329° |
| 2026-05-07 12:37 | -19.83725 | -47.82875 | 21449 ft | 392 kts | 329° |
| 2026-05-07 12:37 | -19.81347 | -47.84289 | 20986 ft | 391 kts | 329° |
| 2026-05-07 12:37 | -19.78974 | -47.85700 | 20514 ft | 391 kts | 329° |
| 2026-05-07 12:37 | -19.76611 | -47.87104 | 20150 ft | 387 kts | 330° |
| 2026-05-07 12:38 | -19.74263 | -47.88500 | 19643 ft | 387 kts | 330° |
| 2026-05-07 12:38 | -19.71914 | -47.89897 | 19166 ft | 387 kts | 331° |
| 2026-05-07 12:38 | -19.69569 | -47.91287 | 18830 ft | 382 kts | 331° |
| 2026-05-07 12:38 | -19.67256 | -47.92659 | 18346 ft | 381 kts | 332° |
| 2026-05-07 12:39 | -19.64952 | -47.94028 | 17923 ft | 378 kts | 332° |
| 2026-05-07 12:39 | -19.62669 | -47.95384 | 17543 ft | 374 kts | 332° |
| 2026-05-07 12:39 | -19.60408 | -47.96725 | 17139 ft | 371 kts | 332° |
| 2026-05-07 12:39 | -19.58169 | -47.98054 | 16767 ft | 367 kts | 332° |
| 2026-05-07 12:40 | -19.55955 | -47.99368 | 16437 ft | 363 kts | 332° |
| 2026-05-07 12:40 | -19.53761 | -48.00667 | 16043 ft | 360 kts | 332° |
| 2026-05-07 12:40 | -19.51583 | -48.01953 | 15693 ft | 357 kts | 332° |
| 2026-05-07 12:40 | -19.49426 | -48.03226 | 15356 ft | 353 kts | 333° |
| 2026-05-07 12:41 | -19.47288 | -48.04490 | 15002 ft | 350 kts | 333° |
| 2026-05-07 12:41 | -19.45171 | -48.05744 | 14675 ft | 347 kts | 332° |
| 2026-05-07 12:41 | -19.43071 | -48.06987 | 14350 ft | 344 kts | 333° |
| 2026-05-07 12:41 | -19.40992 | -48.08216 | 14024 ft | 341 kts | 332° |
| 2026-05-07 12:42 | -19.38930 | -48.09432 | 13651 ft | 338 kts | 333° |
| 2026-05-07 12:42 | -19.36886 | -48.10637 | 13262 ft | 335 kts | 333° |
| 2026-05-07 12:42 | -19.34857 | -48.11831 | 12893 ft | 331 kts | 332° |
| 2026-05-07 12:42 | -19.32868 | -48.13002 | 12249 ft | 325 kts | 334° |
| 2026-05-07 12:43 | -19.30906 | -48.14157 | 11609 ft | 320 kts | 334° |
| 2026-05-07 12:43 | -19.28986 | -48.15291 | 11188 ft | 308 kts | 333° |
| 2026-05-07 12:43 | -19.27159 | -48.16375 | 10823 ft | 296 kts | 333° |
| 2026-05-07 12:43 | -19.25377 | -48.17432 | 10307 ft | 291 kts | 333° |
| 2026-05-07 12:44 | -19.23643 | -48.18455 | 9749 ft | 287 kts | 333° |
| 2026-05-07 12:44 | -19.21884 | -48.19490 | 9112 ft | 284 kts | 334° |
| 2026-05-07 12:44 | -19.20167 | -48.20500 | 8529 ft | 280 kts | 334° |
| 2026-05-07 12:44 | -19.18513 | -48.21473 | 8096 ft | 270 kts | 334° |
| 2026-05-07 12:45 | -19.16901 | -48.22422 | 7714 ft | 261 kts | 334° |
| 2026-05-07 12:45 | -19.15321 | -48.23353 | 7324 ft | 252 kts | 334° |
| 2026-05-07 12:45 | -19.13808 | -48.24243 | 7038 ft | 250 kts | 335° |
| 2026-05-07 12:45 | -19.12302 | -48.25130 | 6948 ft | 239 kts | 335° |
| 2026-05-07 12:46 | -19.10893 | -48.25962 | 6851 ft | 231 kts | 335° |
| 2026-05-07 12:46 | -19.09500 | -48.26786 | 6749 ft | 222 kts | 335° |
| 2026-05-07 12:46 | -19.08194 | -48.27557 | 6648 ft | 214 kts | 336° |
| 2026-05-07 12:46 | -19.06915 | -48.28310 | 6547 ft | 208 kts | 336° |
| 2026-05-07 12:47 | -19.05628 | -48.29013 | 6307 ft | 205 kts | 345° |
| 2026-05-07 12:47 | -19.04255 | -48.29269 | 6102 ft | 200 kts | 4° |
| 2026-05-07 12:47 | -19.02905 | -48.28984 | 5857 ft | 197 kts | 23° |
| 2026-05-07 12:47 | -19.01671 | -48.28441 | 5605 ft | 187 kts | 24° |
| 2026-05-07 12:48 | -19.00493 | -48.27923 | 5373 ft | 181 kts | 24° |
| 2026-05-07 12:48 | -18.99340 | -48.27417 | 5132 ft | 178 kts | 24° |
| 2026-05-07 12:48 | -18.98209 | -48.26919 | 5006 ft | 175 kts | 23° |
| 2026-05-07 12:48 | -18.97090 | -48.26428 | 4779 ft | 173 kts | 24° |
| 2026-05-07 12:49 | -18.95999 | -48.25948 | 4547 ft | 167 kts | 25° |
| 2026-05-07 12:49 | -18.94971 | -48.25497 | 4366 ft | 153 kts | 24° |
| 2026-05-07 12:49 | -18.94012 | -48.25076 | 4167 ft | 147 kts | 25° |
| 2026-05-07 12:49 | -18.93067 | -48.24659 | 3960 ft | 148 kts | 24° |
| 2026-05-07 12:50 | -18.92125 | -48.24245 | 3732 ft | 145 kts | 25° |
| 2026-05-07 12:50 | -18.91189 | -48.23846 | 3537 ft | 145 kts | 25° |
| 2026-05-07 12:50 | -18.90257 | -48.23421 | 3317 ft | 146 kts | 25° |
| 2026-05-07 12:50 | -18.89313 | -48.23019 | 3187 ft | 146 kts | 28° |
| 2026-05-07 12:51 | -18.88421 | -48.22608 | 3109 ft | 124 kts | 25° |
| 2026-05-07 12:51 | -18.87790 | -48.22342 | 3109 ft | 73 kts | 22° |
| 2026-05-07 12:51 | -18.87505 | -48.22218 | 3110 ft | 17 kts | 19° |
| 2026-05-07 12:51 | -18.87455 | -48.22170 | 3110 ft | 8 kts | 46° |
| 2026-05-07 12:52 | -18.87439 | -48.22201 | 3109 ft | 6 kts | 222° |
| 2026-05-07 12:52 | -18.87465 | -48.22208 | 3110 ft | 3 kts | 193° |
| 2026-05-07 12:52 | -18.87529 | -48.22230 | 3110 ft | 17 kts | 204° |
| 2026-05-07 12:52 | -18.87675 | -48.22291 | 3110 ft | 25 kts | 202° |
| 2026-05-07 12:53 | -18.87838 | -48.22360 | 3109 ft | 26 kts | 202° |
| 2026-05-07 12:53 | -18.88008 | -48.22438 | 3108 ft | 27 kts | 202° |
| 2026-05-07 12:53 | -18.88188 | -48.22512 | 3107 ft | 28 kts | 202° |
| 2026-05-07 12:53 | -18.88371 | -48.22593 | 3109 ft | 28 kts | 204° |
| 2026-05-07 12:54 | -18.88555 | -48.22675 | 3109 ft | 29 kts | 203° |
| 2026-05-07 12:54 | -18.88736 | -48.22756 | 3109 ft | 25 kts | 206° |
| 2026-05-07 12:54 | -18.88793 | -48.22863 | 3108 ft | 15 kts | 245° |
| 2026-05-07 12:54 | -18.88864 | -48.22936 | 3108 ft | 15 kts | 198° |
| 2026-05-07 12:55 | -18.88948 | -48.22970 | 3107 ft | 1 kts | 211° |
| 2026-05-07 12:55 | -18.88951 | -48.22978 | 3107 ft | 1 kts | 249° |
| 2026-05-07 12:55 | -18.88947 | -48.22987 | 3108 ft | 2 kts | 287° |
| 2026-05-07 12:55 | -18.88942 | -48.23004 | 3108 ft | 3 kts | 291° |
| 2026-05-07 12:56 | -18.88937 | -48.23018 | 3108 ft | 0 kts | 292° |